Surface/Precipitation History
01/23/2017 14:12  to  1/24/2017 14:12
Change End Date:
Date/Time
(MST)
Sf
Temp Chem Water Layer Surface Precipitation
Sfc Pvt Sub Frz Factor Pct Dpth DpthThk IcePct Cond Salin FI Type Intens Accum Rate
01/24/2017 14:06 Dry 32.2F - 24F - - - - - - 1 mhos 151 - None None 0.00 in 0.0 iph
01/24/2017 14:05 Dry 32.0F - 24F - - - - - - 1 mhos 159 - None None 0.00 in 0.0 iph
01/24/2017 13:55 Dry 29.5F - 24F - - - - - - 1 mhos 163 - None None 0.00 in 0.0 iph
01/24/2017 13:51 Dry 29.8F - 24F - - - - - - 2 mhos 166 - None None 0.00 in 0.0 iph
01/24/2017 13:45 Dry 29.3F - 24F - - - - - - 2 mhos 179 - None None 0.00 in 0.0 iph
01/24/2017 13:36 Dry 30.6F - 24F - - - - - - 2 mhos 169 - None None 0.00 in 0.0 iph
01/24/2017 13:35 Dry 30.2F - 24F - - - - - - 1 mhos 162 - None None 0.00 in 0.0 iph
01/24/2017 13:25 Dry 28.2F - 24F - - - - - - 1 mhos 147 - None None 0.00 in 0.0 iph
01/24/2017 13:21 Dry 28.6F - 24F - - - - - - 1 mhos 157 - None None 0.00 in 0.0 iph
01/24/2017 13:15 Dry 28.9F - 24F - - - - - - 1 mhos 165 - None None 0.00 in 0.0 iph
01/24/2017 13:06 Dry 29.5F - 24F - - - - - - 2 mhos 176 - None None 0.00 in 0.0 iph
01/24/2017 13:05 Dry 29.5F - 24F - - - - - - 2 mhos 177 - None None 0.00 in 0.0 iph
01/24/2017 12:55 Dry 29.1F - 24F - - - - - - 2 mhos 183 - None None 0.00 in 0.0 iph
01/24/2017 12:51 Dry 29.3F - 24F - - - - - - 2 mhos 186 - None None 0.00 in 0.0 iph
01/24/2017 12:45 Dry 29.3F - 24F - - - - - - 2 mhos 174 - None None 0.00 in 0.0 iph
Date/Time
(MST)
Sf
Temp Chem Water Layer Surface Precipitation
Sfc Pvt Sub Frz Factor Pct Dpth DpthThk IcePct Cond Salin FI Type Intens Accum Rate
01/24/2017 12:36 Dry 28.4F - 24F - - - - - - 1 mhos 163 - None None 0.00 in 0.0 iph
01/24/2017 12:35 Dry 28.4F - 24F - - - - - - 1 mhos 164 - None None 0.00 in 0.0 iph
01/24/2017 12:25 Dry 28.2F - 24F - - - - - - 1 mhos 167 - None None 0.00 in 0.0 iph
01/24/2017 12:21 Dry 28.2F - 24F - - - - - - 2 mhos 170 - None None 0.00 in 0.0 iph
01/24/2017 12:15 Dry 28.2F - 24F - - - - - - 2 mhos 174 - None None 0.00 in 0.0 iph
01/24/2017 12:06 Dry 28.0F - 24F - - - - - - 1 mhos 163 - None None 0.00 in 0.0 iph
01/24/2017 12:05 Dry 28.0F - 24F - - - - - - 1 mhos 164 - None None 0.00 in 0.0 iph
01/24/2017 11:55 Dry 27.3F - 24F - - - - - - 1 mhos 169 - None None 0.00 in 0.0 iph
01/24/2017 11:51 Dry 27.0F - 24F - - - - - - 1 mhos 163 - None None 0.00 in 0.0 iph
01/24/2017 11:45 Dry 26.1F - 24F - - - - - - 1 mhos 153 - None None 0.00 in 0.0 iph
01/24/2017 11:36 Dry 25.2F - 24F - - - - - - 1 mhos 147 - None None 0.00 in 0.0 iph
01/24/2017 11:34 Dry 25.0F - 24F - - - - - - 1 mhos 146 - None None 0.00 in 0.0 iph
01/24/2017 11:24 Ice Warning 24.3F - 24F 32F 5 1% - - 98% 1 mhos 147 - None None 0.00 in 0.0 iph
01/24/2017 11:21 Ice Warning 23.9F - 24F 32F 5 1% - - 98% 1 mhos 145 - None None 0.00 in 0.0 iph
01/24/2017 11:14 Ice Warning 23.5F - 24F 32F 5 1% - - 98% 1 mhos 142 - None None 0.00 in 0.0 iph
Date/Time
(MST)
Sf
Temp Chem Water Layer Surface Precipitation
Sfc Pvt Sub Frz Factor Pct Dpth DpthThk IcePct Cond Salin FI Type Intens Accum Rate
01/24/2017 11:06 Ice Warning 22.5F - 24F 32F 5 1% - - 99% 1 mhos 134 - None None 0.01 in 0.0 iph
01/24/2017 11:04 Ice Warning 22.5F - 24F 32F 5 1% - - 99% 1 mhos 133 - None None 0.01 in 0.0 iph
01/24/2017 10:54 Ice Warning 21.6F - 24F 32F 5 0% - - 99% 1 mhos 127 - None None 0.01 in 0.0 iph
01/24/2017 10:51 Ice Warning 21.0F - 24F 32F 5 0% - - 99% 1 mhos 125 - None None 0.01 in 0.0 iph
01/24/2017 10:44 Ice Warning 20.7F - 24F 32F 5 0% - - 99% 1 mhos 122 - None None 0.01 in 0.0 iph
01/24/2017 10:36 Ice Warning 19.8F - 24F 32F 5 0% - - 99% 1 mhos 117 - None None 0.01 in 0.0 iph
01/24/2017 10:34 Ice Warning 19.8F - 24F 32F 5 0% - - 99% 1 mhos 117 - None None 0.01 in 0.0 iph
01/24/2017 10:24 Ice Warning 19.2F - 24F 32F 5 0% - - 99% 1 mhos 114 - None None 0.01 in 0.0 iph
01/24/2017 10:21 Ice Warning 18.9F - 24F 32F 5 0% - - 99% 1 mhos 114 - None None 0.01 in 0.0 iph
01/24/2017 10:14 Ice Warning 18.3F - 25F 32F 5 0% - - 99% 1 mhos 111 - None None 0.02 in 0.0 iph
01/24/2017 10:06 Ice Warning 17.2F - 24F 32F 5 0% - - 99% 1 mhos 109 - None None 0.02 in 0.0 iph
01/24/2017 10:04 Ice Warning 17.2F - 25F 32F 5 0% - - 99% 1 mhos 109 - None None 0.02 in 0.0 iph
01/24/2017 09:54 Ice Warning 14.9F - 25F 32F 5 0% - - 99% 1 mhos 102 - None None 0.02 in 0.0 iph
01/24/2017 09:51 Ice Warning 14.5F - 25F 32F 10 0% - - 99% 1 mhos 100 - None None 0.02 in 0.0 iph
01/24/2017 09:44 Ice Warning 14.7F - 25F 32F 5 0% - - 99% 1 mhos 99 - None None 0.02 in 0.0 iph
Date/Time
(MST)
Sf
Temp Chem Water Layer Surface Precipitation
Sfc Pvt Sub Frz Factor Pct Dpth DpthThk IcePct Cond Salin FI Type Intens Accum Rate
01/24/2017 09:36 Ice Warning 13.6F - 25F 32F 10 0% - - 100% 1 mhos 96 - None None 0.02 in 0.0 iph
01/24/2017 09:34 Ice Warning 13.5F - 25F 32F 10 0% - - 100% 1 mhos 96 - None None 0.02 in 0.0 iph
01/24/2017 09:24 Ice Warning 13.3F - 25F 32F 10 0% - - 100% 1 mhos 95 - None None 0.02 in 0.0 iph
01/24/2017 09:21 Ice Warning 13.3F - 25F 32F 10 0% - - 100% 1 mhos 95 - None None 0.02 in 0.0 iph
01/24/2017 09:14 Ice Warning 13.3F - 25F 32F 10 0% - - 100% 1 mhos 95 - None None 0.02 in 0.0 iph
01/24/2017 09:06 Ice Warning 12.9F - 25F 32F 10 0% - - 100% 1 mhos 93 - None None 0.02 in 0.0 iph
01/24/2017 09:04 Ice Warning 12.9F - 25F 32F 10 0% - - 100% 1 mhos 93 - None None 0.02 in 0.0 iph
01/24/2017 08:54 Ice Warning 12.2F - 25F 32F 10 0% - - 100% 1 mhos 94 - None None 0.02 in 0.0 iph
01/24/2017 08:51 Ice Warning 12.2F - 25F 32F 10 0% - - 100% 1 mhos 94 - None None 0.02 in 0.0 iph
01/24/2017 08:44 Ice Warning 11.8F - 25F 32F 10 0% - - 100% 1 mhos 92 - None None 0.02 in 0.0 iph
01/24/2017 08:36 Ice Warning 11.8F - 25F 32F 10 0% - - 100% 1 mhos 93 - None None 0.02 in 0.0 iph
01/24/2017 08:34 Ice Warning 11.8F - 25F 32F 5 0% - - 100% 1 mhos 93 - None None 0.02 in 0.0 iph
01/24/2017 08:24 Ice Warning 12.0F - 25F 32F 10 0% - - 100% 1 mhos 93 - None None 0.02 in 0.0 iph
01/24/2017 08:21 Ice Warning 11.8F - 25F 32F 10 0% - - 100% 1 mhos 93 - None None 0.02 in 0.0 iph
01/24/2017 08:14 Ice Warning 11.5F - 25F 32F 10 0% - - 100% 1 mhos 92 - None None 0.02 in 0.0 iph
Date/Time
(MST)
Sf
Temp Chem Water Layer Surface Precipitation
Sfc Pvt Sub Frz Factor Pct Dpth DpthThk IcePct Cond Salin FI Type Intens Accum Rate
01/24/2017 08:06 Ice Warning 11.3F - 25F 32F 10 0% - - 100% 1 mhos 91 - None None 0.02 in 0.0 iph
01/24/2017 08:04 Ice Warning 11.1F - 25F 32F 10 0% - - 100% 1 mhos 91 - None None 0.02 in 0.0 iph
01/24/2017 07:54 Ice Warning 11.1F - 25F 32F 10 0% - - 100% 1 mhos 91 - None None 0.02 in 0.0 iph
01/24/2017 07:51 Ice Warning 11.3F - 25F 32F 5 0% - - 100% 1 mhos 91 - None None 0.02 in 0.0 iph
01/24/2017 07:44 Ice Warning 11.5F - 25F 32F 5 0% - - 100% 1 mhos 92 - None None 0.02 in 0.0 iph
01/24/2017 07:36 Ice Warning 11.3F - 25F 32F 10 0% - - 100% 1 mhos 90 - None None 0.02 in 0.0 iph
01/24/2017 07:34 Ice Warning 11.1F - 25F 32F 10 0% - - 100% 1 mhos 91 - None None 0.02 in 0.0 iph
01/24/2017 07:24 Ice Warning 11.1F - 25F 32F 10 0% - - 100% 1 mhos 90 - None None 0.03 in 0.0 iph
01/24/2017 07:21 Ice Warning 10.9F - 25F 32F 10 0% - - 100% 1 mhos 90 - None None 0.03 in 0.0 iph
01/24/2017 07:13 Ice Warning 10.9F - 25F 32F 10 0% - - 100% 1 mhos 90 - None None 0.03 in 0.0 iph
01/24/2017 07:06 Ice Warning 10.9F - 25F 32F 10 0% - - 100% 1 mhos 89 - None None 0.03 in 0.0 iph
01/24/2017 07:03 Ice Warning 10.9F - 25F 32F 10 0% - - 100% 1 mhos 89 - None None 0.03 in 0.0 iph
01/24/2017 06:53 Ice Warning 11.1F - 25F 32F 10 0% - - 100% 1 mhos 89 - None None 0.03 in 0.0 iph
01/24/2017 06:51 Ice Warning 10.9F - 25F 32F 10 0% - - 100% 1 mhos 89 - None None 0.03 in 0.0 iph
01/24/2017 06:43 Ice Warning 10.9F - 25F 32F 10 0% - - 100% 1 mhos 89 - None None 0.03 in 0.0 iph
Date/Time
(MST)
Sf
Temp Chem Water Layer Surface Precipitation
Sfc Pvt Sub Frz Factor Pct Dpth DpthThk IcePct Cond Salin FI Type Intens Accum Rate
01/24/2017 06:36 Ice Warning 10.9F - 25F 32F 10 0% - - 100% 1 mhos 88 - None None 0.03 in 0.0 iph
01/24/2017 06:33 Ice Warning 10.8F - 25F 32F 10 0% - - 100% 1 mhos 88 - None None 0.03 in 0.0 iph
01/24/2017 06:23 Ice Warning 10.8F - 25F 32F 10 0% - - 100% 1 mhos 87 - None None 0.03 in 0.0 iph
01/24/2017 06:21 Ice Warning 10.9F - 25F 32F 10 0% - - 100% 1 mhos 87 - None None 0.03 in 0.0 iph
01/24/2017 06:13 Ice Warning 10.8F - 25F 32F 10 0% - - 100% 1 mhos 86 - None None 0.03 in 0.0 iph
01/24/2017 06:06 Ice Warning 10.6F - 25F 32F 10 0% - - 100% 1 mhos 85 - None None 0.03 in 0.0 iph
01/24/2017 06:03 Ice Warning 10.4F - 25F 32F 10 0% - - 100% 1 mhos 86 - None None 0.03 in 0.0 iph
01/24/2017 05:53 Ice Warning 10.4F - 25F 32F 5 0% - - 100% 1 mhos 85 - None None 0.04 in 0.0 iph
01/24/2017 05:51 Ice Warning 10.4F - 25F 32F 5 0% - - 100% 1 mhos 85 - None None 0.04 in 0.0 iph
01/24/2017 05:43 Ice Warning 10.4F - 25F 32F 5 0% - - 100% 1 mhos 84 - None None 0.04 in 0.0 iph
01/24/2017 05:36 Ice Warning 10.4F - 25F 32F 5 0% - - 100% 1 mhos 84 - None None 0.04 in 0.0 iph
01/24/2017 05:33 Ice Warning 10.2F - 25F 32F 5 0% - - 100% 1 mhos 84 - None None 0.04 in 0.0 iph
01/24/2017 05:23 Ice Warning 10.0F - 25F 32F 5 0% - - 100% 1 mhos 83 - None None 0.04 in 0.0 iph
01/24/2017 05:21 Ice Warning 10.2F - 26F 32F 5 0% - - 100% 1 mhos 84 - None None 0.04 in 0.0 iph
01/24/2017 05:13 Ice Warning 10.4F - 26F 32F 5 0% - - 100% 1 mhos 85 - None None 0.04 in 0.0 iph
Date/Time
(MST)
Sf
Temp Chem Water Layer Surface Precipitation
Sfc Pvt Sub Frz Factor Pct Dpth DpthThk IcePct Cond Salin FI Type Intens Accum Rate
01/24/2017 05:06 Ice Warning 10.4F - 26F 32F 5 0% - - 100% 1 mhos 85 - None None 0.04 in 0.0 iph
01/24/2017 05:03 Ice Warning 10.4F - 26F 32F 5 0% - - 100% 1 mhos 85 - None None 0.04 in 0.0 iph
01/24/2017 04:53 Ice Warning 10.4F - 26F 32F 5 0% - - 100% 1 mhos 85 - None None 0.04 in 0.0 iph
01/24/2017 04:51 Ice Warning 10.4F - 26F 32F 5 0% - - 100% 1 mhos 85 - None None 0.04 in 0.0 iph
01/24/2017 04:43 Ice Warning 10.4F - 26F 32F 5 0% - - 100% 1 mhos 84 - None None 0.04 in 0.0 iph
01/24/2017 04:36 Ice Warning 10.2F - 26F 32F 5 0% - - 100% 1 mhos 84 - None None 0.04 in 0.0 iph
01/24/2017 04:33 Ice Warning 10.0F - 26F 32F 5 0% - - 100% 1 mhos 84 - None None 0.04 in 0.0 iph
01/24/2017 04:23 Ice Warning 9.9F - 26F 32F 5 0% - - 100% 1 mhos 84 - None None 0.04 in 0.0 iph
01/24/2017 04:21 Ice Warning 9.9F - 26F 32F 5 0% - - 100% 1 mhos 84 - None None 0.04 in 0.0 iph
01/24/2017 04:13 Ice Warning 9.9F - 26F 32F 5 0% - - 100% 1 mhos 83 - None None 0.04 in 0.0 iph
01/24/2017 04:06 Ice Warning 9.7F - 26F 32F 5 0% - - 100% 1 mhos 83 - None None 0.04 in 0.0 iph
01/24/2017 04:03 Ice Warning 9.7F - 26F 32F 5 0% - - 100% 1 mhos 83 - None None 0.04 in 0.0 iph
01/24/2017 03:53 Ice Warning 9.7F - 26F 32F 5 0% - - 100% 1 mhos 83 - None None 0.04 in 0.0 iph
01/24/2017 03:51 Ice Warning 9.5F - 26F 32F 5 0% - - 100% 1 mhos 83 - None None 0.04 in 0.0 iph
01/24/2017 03:43 Ice Warning 9.5F - 26F 32F 5 0% - - 100% 1 mhos 82 - None None 0.04 in 0.0 iph
Date/Time
(MST)
Sf
Temp Chem Water Layer Surface Precipitation
Sfc Pvt Sub Frz Factor Pct Dpth DpthThk IcePct Cond Salin FI Type Intens Accum Rate
01/24/2017 03:36 Ice Warning 9.3F - 26F 32F 5 0% - - 100% 1 mhos 82 - None None 0.04 in 0.0 iph
01/24/2017 03:33 Ice Warning 9.1F - 26F 32F 5 0% - - 100% 1 mhos 82 - None None 0.04 in 0.0 iph
01/24/2017 03:23 Ice Warning 9.1F - 26F 32F 5 0% - - 100% 1 mhos 81 - None None 0.04 in 0.0 iph
01/24/2017 03:21 Ice Warning 9.0F - 26F 32F 5 0% - - 100% 1 mhos 81 - None None 0.04 in 0.0 iph
01/24/2017 03:13 Ice Warning 8.6F - 26F 32F 5 0% - - 100% 1 mhos 79 - None None 0.04 in 0.0 iph
01/24/2017 03:06 Ice Warning 8.2F - 26F 32F 5 0% - - 100% 1 mhos 78 - None None 0.04 in 0.0 iph
01/24/2017 03:02 Ice Warning 8.2F - 26F 32F 5 0% - - 100% 1 mhos 78 - None None 0.04 in 0.0 iph
01/24/2017 02:52 Ice Warning 7.7F - 26F 32F 5 0% - - 100% 0 mhos 76 - None None 0.04 in 0.0 iph
01/24/2017 02:51 Ice Warning 7.5F - 26F 32F 5 0% - - 100% 0 mhos 76 - None None 0.04 in 0.0 iph
01/24/2017 02:42 Ice Warning 7.9F - 26F 32F 5 0% - - 100% 0 mhos 76 - None None 0.04 in 0.0 iph
01/24/2017 02:36 Ice Warning 7.9F - 26F 32F 5 0% - - 100% 0 mhos 76 - None None 0.04 in 0.0 iph
01/24/2017 02:32 Ice Warning 7.9F - 26F 32F 5 0% - - 100% 0 mhos 76 - None None 0.04 in 0.0 iph
01/24/2017 02:22 Ice Warning 8.2F - 26F 32F 5 0% - - 100% 1 mhos 77 - None None 0.04 in 0.0 iph
01/24/2017 02:21 Ice Warning 8.2F - 26F 32F 5 0% - - 100% 1 mhos 77 - None None 0.04 in 0.0 iph
01/24/2017 02:12 Ice Warning 8.6F - 26F 32F 5 0% - - 100% 1 mhos 78 - None None 0.04 in 0.0 iph
Date/Time
(MST)
Sf
Temp Chem Water Layer Surface Precipitation
Sfc Pvt Sub Frz Factor Pct Dpth DpthThk IcePct Cond Salin FI Type Intens Accum Rate
01/24/2017 02:06 Ice Warning 8.8F - 26F 32F 5 0% - - 100% 1 mhos 78 - None None 0.04 in 0.0 iph
01/24/2017 02:02 Ice Warning 9.0F - 26F 32F 5 0% - - 100% 1 mhos 79 - None None 0.04 in 0.0 iph
01/24/2017 01:52 Ice Warning 9.7F - 26F 32F 5 0% - - 100% 1 mhos 81 - None None 0.04 in 0.0 iph
01/24/2017 01:51 Ice Warning 9.7F - 26F 32F 5 0% - - 100% 1 mhos 82 - None None 0.04 in 0.0 iph
01/24/2017 01:42 Ice Warning 10.2F - 26F 32F 5 0% - - 100% 1 mhos 84 - None None 0.04 in 0.0 iph
01/24/2017 01:36 Ice Warning 10.6F - 26F 32F 5 0% - - 100% 1 mhos 85 - None None 0.04 in 0.0 iph
01/24/2017 01:32 Ice Warning 10.6F - 26F 32F 5 0% - - 100% 1 mhos 85 - None None 0.04 in 0.0 iph
01/24/2017 01:22 Ice Warning 10.4F - 27F 32F 5 0% - - 100% 1 mhos 86 - None None 0.04 in 0.0 iph
01/24/2017 01:21 Ice Warning 10.4F - 27F 32F 5 0% - - 100% 1 mhos 86 - None None 0.04 in 0.0 iph
01/24/2017 01:12 Ice Warning 10.4F - 27F 32F 5 0% - - 100% 1 mhos 85 - None None 0.04 in 0.0 iph
01/24/2017 01:06 Ice Warning 10.2F - 27F 32F 5 0% - - 100% 1 mhos 85 - None None 0.04 in 0.0 iph
01/24/2017 01:02 Ice Warning 9.9F - 27F 32F 5 0% - - 100% 1 mhos 84 - None None 0.04 in 0.0 iph
01/24/2017 00:52 Ice Warning 9.1F - 27F 32F 5 0% - - 100% 1 mhos 82 - None None 0.04 in 0.0 iph
01/24/2017 00:51 Ice Warning 9.3F - 27F 32F 5 0% - - 100% 1 mhos 82 - None None 0.04 in 0.0 iph
01/24/2017 00:42 Ice Warning 8.6F - 27F 32F 5 0% - - 100% 1 mhos 80 - None None 0.04 in 0.0 iph
Date/Time
(MST)
Sf
Temp Chem Water Layer Surface Precipitation
Sfc Pvt Sub Frz Factor Pct Dpth DpthThk IcePct Cond Salin FI Type Intens Accum Rate
01/24/2017 00:36 Ice Warning 8.4F - 27F 32F 5 0% - - 100% 1 mhos 80 - None None 0.04 in 0.0 iph
01/24/2017 00:32 Ice Warning 8.4F - 27F 32F 5 0% - - 100% 1 mhos 80 - None None 0.04 in 0.0 iph
01/24/2017 00:22 Ice Warning 8.6F - 27F 32F 5 0% - - 100% 1 mhos 80 - None None 0.04 in 0.0 iph
01/24/2017 00:21 Ice Warning 8.6F - 27F 32F 5 0% - - 100% 1 mhos 81 - None None 0.04 in 0.0 iph
01/24/2017 00:12 Ice Warning 8.6F - 27F 32F 5 0% - - 100% 1 mhos 81 - None None 0.04 in 0.0 iph
01/24/2017 00:06 Ice Warning 8.8F - 27F 32F 5 0% - - 100% 1 mhos 81 - None None 0.04 in 0.0 iph
01/24/2017 00:02 Ice Warning 8.8F - 27F 32F 5 0% - - 100% 1 mhos 82 - None None 0.04 in 0.0 iph
01/23/2017 23:52 Ice Warning 9.3F - 27F 32F 5 0% - - 100% 1 mhos 82 - None None 0.04 in 0.0 iph
01/23/2017 23:51 Ice Warning 9.1F - 27F 32F 5 0% - - 100% 1 mhos 82 - None None 0.04 in 0.0 iph
01/23/2017 23:42 Ice Warning 9.3F - 27F 32F 5 0% - - 100% 1 mhos 83 - None None 0.04 in 0.0 iph
01/23/2017 23:36 Ice Warning 9.3F - 27F 32F 5 0% - - 100% 1 mhos 84 - None None 0.04 in 0.0 iph
01/23/2017 23:32 Ice Warning 9.5F - 27F 32F 5 0% - - 100% 1 mhos 83 - None None 0.04 in 0.0 iph
01/23/2017 23:22 Ice Warning 9.5F - 27F 32F 5 0% - - 100% 1 mhos 85 - None None 0.04 in 0.0 iph
01/23/2017 23:21 Ice Warning 9.5F - 27F 32F 5 0% - - 100% 1 mhos 85 - None None 0.04 in 0.0 iph
01/23/2017 23:12 Ice Warning 9.7F - 27F 32F 5 0% - - 100% 1 mhos 86 - None None 0.04 in 0.0 iph
Date/Time
(MST)
Sf
Temp Chem Water Layer Surface Precipitation
Sfc Pvt Sub Frz Factor Pct Dpth DpthThk IcePct Cond Salin FI Type Intens Accum Rate
01/23/2017 23:06 Ice Warning 10.0F - 27F 32F 5 0% - - 100% 1 mhos 87 - None None 0.04 in 0.0 iph
01/23/2017 23:01 Ice Warning 10.0F - 27F 32F 5 0% - - 100% 1 mhos 88 - None None 0.04 in 0.0 iph
01/23/2017 22:51 Ice Warning 10.4F - 27F 32F 5 0% - - 100% 1 mhos 91 - None None 0.04 in 0.0 iph
01/23/2017 22:51 Ice Warning 10.4F - 27F 32F 5 0% - - 100% 1 mhos 91 - None None 0.04 in 0.0 iph
01/23/2017 22:41 Ice Warning 10.4F - 27F 32F 5 0% - - 100% 1 mhos 92 - None None 0.04 in 0.0 iph
01/23/2017 22:36 Ice Warning 10.6F - 27F 32F 5 0% - - 100% 1 mhos 92 - None None 0.04 in 0.0 iph
01/23/2017 22:31 Ice Warning 10.6F - 27F 32F 5 0% - - 100% 1 mhos 93 - None None 0.04 in 0.0 iph
01/23/2017 22:21 Ice Warning 10.9F - 27F 32F 5 0% - - 100% 1 mhos 94 - None None 0.04 in 0.0 iph
01/23/2017 22:21 Ice Warning 10.9F - 27F 32F 5 0% - - 100% 1 mhos 94 - None None 0.04 in 0.0 iph
01/23/2017 22:11 Ice Warning 11.1F - 27F 32F 5 0% - - 100% 1 mhos 95 - None None 0.04 in 0.0 iph
01/23/2017 22:06 Ice Warning 11.1F - 27F 32F 5 0% - - 100% 1 mhos 96 - None None 0.04 in 0.0 iph
01/23/2017 22:01 Ice Warning 11.3F - 27F 32F 5 0% - - 100% 1 mhos 97 - None None 0.04 in 0.0 iph
01/23/2017 21:51 Ice Warning 11.5F - 27F 32F 5 0% - - 100% 1 mhos 98 - None None 0.04 in 0.0 iph
01/23/2017 21:51 Ice Warning 11.5F - 27F 32F 5 0% - - 100% 1 mhos 99 - None None 0.04 in 0.0 iph
01/23/2017 21:41 Ice Warning 11.7F - 27F 32F 5 0% - - 100% 1 mhos 100 - None None 0.04 in 0.0 iph
Date/Time
(MST)
Sf
Temp Chem Water Layer Surface Precipitation
Sfc Pvt Sub Frz Factor Pct Dpth DpthThk IcePct Cond Salin FI Type Intens Accum Rate
01/23/2017 21:36 Ice Warning 11.7F - 27F 32F 5 0% - - 100% 1 mhos 101 - None None 0.04 in 0.0 iph
01/23/2017 21:31 Ice Warning 11.8F - 27F 32F 5 0% - - 100% 1 mhos 102 - None None 0.04 in 0.0 iph
01/23/2017 21:21 Ice Warning 12.0F - 28F 32F 5 0% - - 100% 1 mhos 104 - None None 0.04 in 0.0 iph
01/23/2017 21:21 Ice Warning 12.0F - 28F 32F 5 0% - - 100% 1 mhos 104 - None None 0.04 in 0.0 iph
01/23/2017 21:11 Ice Warning 12.4F - 28F 32F 5 0% - - 99% 1 mhos 107 - None None 0.04 in 0.0 iph
01/23/2017 21:06 Ice Warning 12.4F - 28F 32F 5 0% - - 99% 1 mhos 107 - None None 0.04 in 0.0 iph
01/23/2017 21:01 Ice Warning 12.6F - 28F 32F 5 0% - - 99% 1 mhos 107 - None None 0.04 in 0.0 iph
01/23/2017 20:51 Ice Warning 13.1F - 28F 32F 5 0% - - 99% 1 mhos 109 - None None 0.04 in 0.0 iph
01/23/2017 20:51 Ice Warning 13.1F - 28F 32F 5 0% - - 99% 1 mhos 109 - None None 0.04 in 0.0 iph
01/23/2017 20:41 Ice Warning 13.3F - 28F 32F 5 0% - - 99% 1 mhos 112 - None None 0.04 in 0.0 iph
01/23/2017 20:36 Ice Warning 13.5F - 28F 32F 5 0% - - 99% 1 mhos 113 - None None 0.04 in 0.0 iph
01/23/2017 20:31 Ice Warning 13.6F - 28F 32F 5 0% - - 99% 1 mhos 115 - None None 0.04 in 0.0 iph
01/23/2017 20:21 Ice Warning 13.8F - 28F 32F 5 0% - - 99% 1 mhos 117 - None None 0.04 in 0.0 iph
01/23/2017 20:21 Ice Warning 13.8F - 28F 32F 5 0% - - 99% 1 mhos 117 - None None 0.04 in 0.0 iph
01/23/2017 20:11 Ice Warning 14.0F - 28F 32F 5 0% - - 99% 1 mhos 120 - None None 0.04 in 0.0 iph
Date/Time
(MST)
Sf
Temp Chem Water Layer Surface Precipitation
Sfc Pvt Sub Frz Factor Pct Dpth DpthThk IcePct Cond Salin FI Type Intens Accum Rate
01/23/2017 20:06 Ice Warning 14.0F - 28F 32F 5 0% - - 99% 1 mhos 119 - None None 0.04 in 0.0 iph
01/23/2017 20:01 Ice Warning 14.4F - 28F 32F 5 0% - - 99% 1 mhos 119 - None None 0.04 in 0.0 iph
01/23/2017 19:51 Ice Warning 14.4F - 28F 32F 5 0% - - 99% 1 mhos 123 - None None 0.04 in 0.0 iph
01/23/2017 19:51 Ice Warning 14.4F - 28F 32F 5 0% - - 99% 1 mhos 122 - None None 0.04 in 0.0 iph
01/23/2017 19:41 Ice Warning 14.7F - 28F 32F 5 0% - - 99% 1 mhos 126 - None None 0.04 in 0.0 iph
01/23/2017 19:36 Ice Warning 14.9F - 28F 32F 5 0% - - 99% 1 mhos 128 - None None 0.04 in 0.0 iph
01/23/2017 19:31 Ice Warning 15.1F - 28F 32F 5 0% - - 99% 1 mhos 129 - None None 0.04 in 0.0 iph
01/23/2017 19:21 Ice Warning 15.4F - 28F 32F 5 0% - - 99% 1 mhos 113 - None None 0.04 in 0.0 iph
01/23/2017 19:21 Ice Warning 15.4F - 28F 32F 5 0% - - 99% 1 mhos 113 - None None 0.04 in 0.0 iph
01/23/2017 19:11 Ice Warning 15.8F - 28F 32F 5 0% - - 99% 1 mhos 116 - None None 0.04 in 0.0 iph
01/23/2017 19:06 Ice Warning 15.8F - 28F 32F 5 0% - - 99% 1 mhos 117 - None None 0.04 in 0.0 iph
01/23/2017 19:01 Ice Warning 16.2F - 28F 32F 5 0% - - 99% 1 mhos 119 - None None 0.04 in 0.0 iph
01/23/2017 18:51 Ice Warning 16.5F - 28F 32F 5 0% - - 99% 1 mhos 121 - None None 0.04 in 0.0 iph
01/23/2017 18:50 Ice Warning 16.5F - 28F 32F 5 0% - - 99% 1 mhos 121 - None None 0.04 in 0.0 iph
01/23/2017 18:40 Ice Warning 16.7F - 28F 32F 5 0% - - 99% 1 mhos 124 - None None 0.04 in 0.0 iph
Date/Time
(MST)
Sf
Temp Chem Water Layer Surface Precipitation
Sfc Pvt Sub Frz Factor Pct Dpth DpthThk IcePct Cond Salin FI Type Intens Accum Rate
01/23/2017 18:36 Ice Warning 16.9F - 28F 32F 5 1% - - 99% 1 mhos 133 - None None 0.04 in 0.0 iph
01/23/2017 18:30 Ice Warning 17.2F - 28F 32F 5 1% - - 99% 1 mhos 144 - None None 0.04 in 0.0 iph
01/23/2017 18:21 Ice Warning 17.6F - 28F 32F 5 1% - - 99% 1 mhos 147 - None None 0.04 in 0.0 iph
01/23/2017 18:20 Ice Warning 17.6F - 28F 32F 5 1% - - 99% 1 mhos 146 - None None 0.04 in 0.0 iph
01/23/2017 18:10 Ice Warning 18.1F - 27F 32F 5 1% - - 99% 1 mhos 149 - None None 0.04 in 0.0 iph
01/23/2017 18:06 Ice Warning 18.5F - 27F 32F 5 1% - - 99% 1 mhos 151 - None None 0.04 in 0.0 iph
01/23/2017 18:00 Ice Warning 18.5F - 27F 32F 5 1% - - 99% 1 mhos 155 - None None 0.04 in 0.0 iph
01/23/2017 17:51 Ice Warning 19.6F - 27F 32F 5 1% - - 99% 1 mhos 156 - None None 0.04 in 0.0 iph
01/23/2017 17:50 Ice Warning 19.8F - 27F 32F 5 1% - - 99% 1 mhos 156 - None None 0.04 in 0.0 iph
01/23/2017 17:40 Ice Warning 20.3F - 27F 32F 5 1% - - 99% 1 mhos 159 - None None 0.04 in 0.0 iph
01/23/2017 17:36 Ice Warning 20.7F - 27F 32F 5 1% - - 99% 1 mhos 160 - None None 0.04 in 0.0 iph
01/23/2017 17:30 Ice Warning 21.2F - 27F 32F 5 1% - - 99% 1 mhos 159 - None None 0.04 in 0.0 iph
01/23/2017 17:21 Ice Warning 21.7F - 27F 32F 5 1% - - 98% 1 mhos 162 - None None 0.04 in 0.0 iph
01/23/2017 17:20 Ice Warning 21.7F - 27F 32F 5 1% - - 98% 1 mhos 162 - None None 0.04 in 0.0 iph
01/23/2017 17:10 Ice Warning 22.8F - 27F 32F 5 1% - - 98% 1 mhos 166 - None None 0.04 in 0.0 iph
Date/Time
(MST)
Sf
Temp Chem Water Layer Surface Precipitation
Sfc Pvt Sub Frz Factor Pct Dpth DpthThk IcePct Cond Salin FI Type Intens Accum Rate
01/23/2017 17:06 Ice Warning 23.2F - 27F 32F 5 1% - - 98% 1 mhos 169 - None None 0.04 in 0.0 iph
01/23/2017 17:00 Ice Warning 23.9F - 27F 32F 10 1% - - 98% 1 mhos 172 - None None 0.04 in 0.0 iph
01/23/2017 16:51 Ice Warning 24.8F - 27F 32F 10 1% - - 97% 2 mhos 195 - None None 0.04 in 0.0 iph
01/23/2017 16:50 Ice Warning 25.0F - 27F 32F 10 1% - - 97% 2 mhos 195 - None None 0.04 in 0.0 iph
01/23/2017 16:40 Ice Warning 25.7F - 27F 32F 25 1% - - 97% 2 mhos 206 - None None 0.04 in 0.0 iph
01/23/2017 16:36 Ice Warning 26.2F - 27F 32F 45 1% - - 96% 2 mhos 212 - None None 0.04 in 0.0 iph
01/23/2017 16:30 Ice Warning 26.8F - 27F 32F 55 1% - - 96% 2 mhos 220 - None None 0.04 in 0.0 iph
01/23/2017 16:21 Ice Warning 27.9F - 27F 32F 85 1% - - 94% 2 mhos 238 - None None 0.04 in 0.0 iph
01/23/2017 16:20 Ice Warning 27.9F - 27F 32F 85 1% - - 94% 2 mhos 236 - None None 0.04 in 0.0 iph
01/23/2017 16:10 Ice Warning 28.4F - 27F 32F 90 1% - - 93% 2 mhos 262 - None None 0.04 in 0.0 iph
01/23/2017 16:06 Ice Warning 28.8F - 27F 32F 85 1% - - 91% 3 mhos 293 - None None 0.04 in 0.0 iph
01/23/2017 16:00 Chemically Wet 29.1F - 27F 31F 90 2% - - 83% 4 mhos 482 - None None 0.04 in 0.0 iph
01/23/2017 15:51 Chemically Wet 29.5F - 27F 31F 95 3% - - 75% 6 mhos 652 - None None 0.04 in 0.0 iph
01/23/2017 15:50 Chemically Wet 29.5F - 27F 31F 95 3% - - 74% 6 mhos 654 - None None 0.04 in 0.0 iph
01/23/2017 15:40 Chemically Wet 30.2F - 27F 31F 95 2% - - 65% 6 mhos 632 - None None 0.04 in 0.0 iph
Date/Time
(MST)
Sf
Temp Chem Water Layer Surface Precipitation
Sfc Pvt Sub Frz Factor Pct Dpth DpthThk IcePct Cond Salin FI Type Intens Accum Rate
01/23/2017 15:36 Chemically Wet 30.4F - 27F 31F 90 3% - - 58% 6 mhos 683 - None None 0.04 in 0.0 iph
01/23/2017 15:30 Chemically Wet 30.4F - 27F 31F 95 3% - - 58% 6 mhos 673 - None None 0.04 in 0.0 iph
01/23/2017 15:21 Chemically Wet 30.7F - 27F 31F 90 3% - - 48% 6 mhos 674 - None None 0.04 in 0.0 iph
01/23/2017 15:20 Chemically Wet 30.7F - 27F 31F 95 3% - - 49% 6 mhos 672 - None None 0.04 in 0.0 iph
01/23/2017 15:10 Chemically Wet 30.9F - 27F 31F 95 3% - - 25% 7 mhos 754 - None None 0.04 in 0.0 iph
01/23/2017 15:06 Chemically Wet 30.7F - 27F 31F 95 3% - - 35% 7 mhos 746 - None None 0.04 in 0.0 iph
01/23/2017 15:00 Chemically Wet 31.3F - 27F 31F 95 3% 0.00 in - 0% 7 mhos 728 - None None 0.04 in 0.0 iph
01/23/2017 14:51 Wet 32.0F - 27F 31F 95 3% 0.00 in - 0% 7 mhos 731 - None None 0.04 in 0.0 iph
01/23/2017 14:50 Wet 32.0F - 27F 31F 95 3% 0.00 in - 0% 7 mhos 724 - None None 0.04 in 0.0 iph
01/23/2017 14:39 Wet 32.9F - 27F 31F 95 3% 0.00 in - 0% 7 mhos 717 - None None 0.04 in 0.0 iph
01/23/2017 14:36 Wet 32.7F - 27F 31F 95 3% 0.00 in - 0% 7 mhos 696 - None None 0.04 in 0.0 iph
01/23/2017 14:29 Wet 33.1F - 27F 31F 95 2% 0.00 in - 0% 6 mhos 646 - None None 0.04 in 0.0 iph
01/23/2017 14:21 Wet 33.4F - 27F 31F 95 3% 0.00 in - 0% 7 mhos 773 - None None 0.04 in 0.0 iph
01/23/2017 14:19 Wet 33.8F - 27F 31F 95 3% 0.00 in - 0% 7 mhos 762 - None None 0.04 in 0.0 iph
Change End Date:

Copyright © 1998-2015 Vaisala, Inc.
All Rights Reserved
Send comments about the data to:
SCAN Web ® is a registered trademark of Vaisala, Inc.
SCAN Web Version 6.0